Time;durP1;ratioP1;P1;durP2;ratioP2;P2;SDS_P1;SDS_P2;PMS_P1;PMS_P2;Temp;Humidity;BMP_temperature;BMP_pressure;BME280_temperature;BME280_humidity;BME280_pressure;Samples;Min_cycle;Max_cycle;Signal;HPM_P1;HPM_P2
2022/04/23 00:01:26;;;;;;;6.15;5.47;;;8.80;99.90;;;;;;4988323;28;20254;-67
2022/04/23 00:03:54;;;;;;;5.40;4.90;;;8.70;99.90;;;;;;4999390;28;20230;-69
2022/04/23 00:06:22;;;;;;;6.90;5.72;;;8.60;99.90;;;;;;5003392;28;20207;-68
2022/04/23 00:08:49;;;;;;;6.10;5.60;;;8.60;99.90;;;;;;5001730;27;20242;-68
2022/04/23 00:11:17;;;;;;;6.75;4.88;;;8.60;99.90;;;;;;4999381;28;20369;-68
2022/04/23 00:13:45;;;;;;;9.10;6.40;;;8.60;99.90;;;;;;4999136;28;20688;-69
2022/04/23 00:16:14;;;;;;;5.85;5.30;;;8.50;99.90;;;;;;4999863;28;20207;-68
2022/04/23 00:18:44;;;;;;;6.95;6.25;;;8.50;99.90;;;;;;4990839;28;20758;-68
2022/04/23 00:21:13;;;;;;;6.35;5.53;;;8.40;99.90;;;;;;4978545;28;20521;-69
2022/04/23 00:23:41;;;;;;;5.32;4.82;;;8.40;99.90;;;;;;4978627;28;20239;-70
2022/04/23 00:26:09;;;;;;;6.57;5.97;;;8.40;99.90;;;;;;4978975;28;20235;-66
2022/04/23 00:28:36;;;;;;;7.28;5.25;;;8.30;99.90;;;;;;4977650;28;20216;-67
2022/04/23 00:31:05;;;;;;;8.55;5.50;;;8.30;99.90;;;;;;4991654;28;20254;-66
2022/04/23 00:33:36;;;;;;;5.85;5.25;;;8.20;99.90;;;;;;4998305;28;20419;-65
2022/04/23 00:36:06;;;;;;;5.95;5.45;;;8.20;99.90;;;;;;4998598;28;20686;-64
2022/04/23 00:38:34;;;;;;;9.02;6.35;;;8.10;99.90;;;;;;4998362;28;20328;-66
2022/04/23 00:41:02;;;;;;;7.68;5.60;;;8.10;99.90;;;;;;4999405;28;20229;-72
2022/04/23 00:43:33;;;;;;;7.65;6.85;;;8.10;99.90;;;;;;4997931;28;20203;-68
2022/04/23 00:46:03;;;;;;;8.27;6.95;;;8.00;99.90;;;;;;4998146;28;20203;-68
2022/04/23 00:48:31;;;;;;;6.95;6.32;;;8.00;99.90;;;;;;4998930;28;20226;-67
2022/04/23 00:51:01;;;;;;;6.45;5.88;;;7.90;99.90;;;;;;4998341;27;20285;-67
2022/04/23 00:53:30;;;;;;;7.72;6.88;;;7.90;99.90;;;;;;5000947;28;20631;-69
2022/04/23 00:55:59;;;;;;;7.55;6.63;;;7.90;99.90;;;;;;5000199;28;20234;-69
2022/04/23 00:58:28;;;;;;;7.50;6.72;;;7.80;99.90;;;;;;4983362;28;20202;-68
2022/04/23 01:00:56;;;;;;;8.43;7.60;;;7.80;99.90;;;;;;4997978;27;20321;-67
2022/04/23 01:03:24;;;;;;;7.93;6.70;;;7.80;99.90;;;;;;5004238;28;20223;-71
2022/04/23 01:05:55;;;;;;;13.40;7.18;;;7.80;99.90;;;;;;4984982;28;20211;-69
2022/04/23 01:08:24;;;;;;;7.80;7.05;;;7.80;99.90;;;;;;4999098;28;20310;-70
2022/04/23 01:10:53;;;;;;;13.02;8.45;;;7.70;99.90;;;;;;4979242;28;20486;-71
2022/04/23 01:13:25;;;;;;;8.77;7.88;;;7.70;99.90;;;;;;4979480;28;20291;-71
2022/04/23 01:15:58;;;;;;;7.95;7.30;;;7.60;99.90;;;;;;4982929;28;20570;-69
2022/04/23 01:18:26;;;;;;;8.65;7.28;;;7.60;99.90;;;;;;4999896;28;20199;-69
2022/04/23 01:20:56;;;;;;;11.32;9.70;;;7.60;99.90;;;;;;4996476;27;20330;-70
2022/04/23 01:23:24;;;;;;;10.73;8.15;;;7.50;99.90;;;;;;4998387;28;20279;-70
2022/04/23 01:25:53;;;;;;;8.95;8.15;;;7.50;99.90;;;;;;4997607;28;20300;-69
2022/04/23 01:28:22;;;;;;;8.80;8.00;;;7.50;99.90;;;;;;4997715;28;20233;-70
2022/04/23 01:30:50;;;;;;;10.00;8.57;;;7.50;99.90;;;;;;4998266;28;20447;-72
2022/04/23 01:33:18;;;;;;;11.20;10.00;;;7.40;99.90;;;;;;4998440;27;20215;-71
2022/04/23 01:35:47;;;;;;;12.98;9.20;;;7.30;99.90;;;;;;4997823;28;20300;-70
2022/04/23 01:38:16;;;;;;;10.73;9.30;;;7.30;99.90;;;;;;5006569;28;20400;-71
2022/04/23 01:40:44;;;;;;;15.55;10.63;;;7.30;99.90;;;;;;5015334;28;20227;-70
2022/04/23 01:43:13;;;;;;;13.85;10.63;;;7.20;99.90;;;;;;4998453;28;20700;-71
2022/04/23 01:45:41;;;;;;;11.60;9.95;;;7.20;99.90;;;;;;4997852;28;20226;-70
2022/04/23 01:48:09;;;;;;;11.10;9.55;;;7.20;99.90;;;;;;4997833;27;20497;-69
2022/04/23 01:50:37;;;;;;;12.75;9.45;;;7.20;99.90;;;;;;4980280;28;20211;-71
2022/04/23 01:53:05;;;;;;;18.35;12.20;;;7.20;99.90;;;;;;4976896;28;20220;-69
2022/04/23 01:55:34;;;;;;;14.63;10.23;;;7.10;99.90;;;;;;4977075;28;20256;-72
2022/04/23 01:58:02;;;;;;;11.70;9.70;;;7.10;99.90;;;;;;4977465;28;20208;-70
2022/04/23 02:00:30;;;;;;;16.55;11.30;;;7.10;99.90;;;;;;4977106;28;20276;-70
2022/04/23 02:02:58;;;;;;;16.60;11.98;;;7.00;99.90;;;;;;4980775;28;20200;-71
2022/04/23 02:05:26;;;;;;;17.08;11.45;;;7.00;99.90;;;;;;4980477;28;20423;-69
2022/04/23 02:07:54;;;;;;;21.40;13.48;;;7.00;99.90;;;;;;4981179;28;20232;-71
2022/04/23 02:10:22;;;;;;;15.13;12.48;;;6.90;99.90;;;;;;4980832;28;20532;-69
2022/04/23 02:12:51;;;;;;;15.40;12.88;;;6.90;99.90;;;;;;4980284;28;20229;-68
2022/04/23 02:15:20;;;;;;;19.17;13.32;;;6.90;99.90;;;;;;4980300;28;20303;-68
2022/04/23 02:17:50;;;;;;;20.38;13.52;;;6.90;99.90;;;;;;4980784;28;20637;-69
2022/04/23 02:20:18;;;;;;;17.92;13.40;;;6.80;99.90;;;;;;4980614;28;20524;-70
2022/04/23 02:22:47;;;;;;;17.15;13.63;;;6.80;99.90;;;;;;4981588;28;20238;-71
2022/04/23 02:25:16;;;;;;;20.00;14.15;;;6.80;99.90;;;;;;4983029;28;20492;-69
2022/04/23 02:27:45;;;;;;;19.27;13.35;;;6.80;99.90;;;;;;4980211;28;20251;-70
2022/04/23 02:30:15;;;;;;;17.23;12.90;;;6.80;99.90;;;;;;4980181;28;20460;-70
2022/04/23 02:32:43;;;;;;;17.92;13.70;;;6.70;99.90;;;;;;4979790;28;20303;-71
2022/04/23 02:35:12;;;;;;;24.10;13.80;;;6.70;99.90;;;;;;4980318;28;20742;-70
2022/04/23 02:37:44;;;;;;;22.55;14.95;;;6.70;99.90;;;;;;4980294;28;20204;-71
2022/04/23 02:40:14;;;;;;;21.25;15.52;;;6.70;99.90;;;;;;4981412;28;20203;-70
2022/04/23 02:42:42;;;;;;;22.58;15.02;;;6.60;99.90;;;;;;4986082;28;20496;-69
2022/04/23 02:45:13;;;;;;;23.10;15.35;;;6.60;99.90;;;;;;4987989;28;20204;-69
2022/04/23 02:47:47;;;;;;;19.40;14.02;;;6.60;99.90;;;;;;4986656;28;20211;-70
2022/04/23 02:50:16;;;;;;;20.33;14.93;;;6.60;99.90;;;;;;4988913;28;20286;-68
2022/04/23 02:52:45;;;;;;;21.95;15.73;;;6.60;99.90;;;;;;4996784;28;20224;-69
2022/04/23 02:55:13;;;;;;;26.48;16.25;;;6.60;99.90;;;;;;4996203;28;20199;-71
2022/04/23 02:57:41;;;;;;;25.85;15.00;;;6.50;99.90;;;;;;4984738;28;20200;-71
2022/04/23 03:00:10;;;;;;;25.23;16.35;;;6.60;99.90;;;;;;4981147;28;20299;-71
2022/04/23 03:02:38;;;;;;;27.73;17.10;;;6.50;99.90;;;;;;4979583;28;20308;-71
2022/04/23 03:05:11;;;;;;;24.00;16.17;;;6.50;99.90;;;;;;4979931;28;20459;-70
2022/04/23 03:07:39;;;;;;;22.70;15.63;;;6.50;99.90;;;;;;4979471;28;20523;-70
2022/04/23 03:10:09;;;;;;;24.42;17.55;;;6.50;99.90;;;;;;4979853;28;20281;-70
2022/04/23 03:12:38;;;;;;;19.45;15.43;;;6.50;99.90;;;;;;4980531;28;20228;-70
2022/04/23 03:15:08;;;;;;;22.77;16.88;;;6.50;99.90;;;;;;4983470;28;20705;-70
2022/04/23 03:17:36;;;;;;;25.27;17.40;;;6.50;99.90;;;;;;4983463;28;20261;-70
2022/04/23 03:20:05;;;;;;;23.88;15.68;;;6.50;99.90;;;;;;4981622;28;20333;-70
2022/04/23 03:22:35;;;;;;;26.65;17.50;;;6.50;99.90;;;;;;4984639;28;20290;-71
2022/04/23 03:25:03;;;;;;;24.48;17.33;;;6.40;99.90;;;;;;4981165;28;20302;-69
2022/04/23 03:27:31;;;;;;;28.15;18.40;;;6.40;99.90;;;;;;4982119;28;20261;-69
2022/04/23 03:29:59;;;;;;;26.35;17.63;;;6.40;99.90;;;;;;4981449;28;20249;-69
2022/04/23 03:32:27;;;;;;;25.33;18.40;;;6.40;99.90;;;;;;4981811;28;20850;-70
2022/04/23 03:34:55;;;;;;;29.80;18.90;;;6.40;99.90;;;;;;4980589;28;20400;-70
2022/04/23 03:37:24;;;;;;;28.45;19.50;;;6.30;99.90;;;;;;4980593;28;20249;-70
2022/04/23 03:39:53;;;;;;;29.77;19.92;;;6.30;99.90;;;;;;4979986;28;20300;-70
2022/04/23 03:42:21;;;;;;;37.53;20.25;;;6.30;99.90;;;;;;4980559;28;20234;-70
2022/04/23 03:44:49;;;;;;;32.80;20.00;;;6.30;99.90;;;;;;4980740;28;20210;-68
2022/04/23 03:47:17;;;;;;;32.70;20.60;;;6.20;99.90;;;;;;4980163;28;20299;-69
2022/04/23 03:49:44;;;;;;;33.45;21.05;;;6.20;99.90;;;;;;4979085;28;20220;-70
2022/04/23 03:52:12;;;;;;;28.73;20.20;;;6.20;99.90;;;;;;4979086;28;20255;-68
2022/04/23 03:54:40;;;;;;;30.42;21.67;;;6.20;99.90;;;;;;4979403;28;20648;-69
2022/04/23 03:57:09;;;;;;;30.63;20.13;;;6.20;99.90;;;;;;4997616;28;20200;-67
2022/04/23 03:59:37;;;;;;;30.10;21.08;;;6.20;99.90;;;;;;4989670;28;20204;-67
2022/04/23 04:02:06;;;;;;;29.52;20.85;;;6.20;99.90;;;;;;4979172;28;20257;-68
2022/04/23 04:04:34;;;;;;;31.90;20.02;;;6.20;99.90;;;;;;4978204;28;20497;-67
2022/04/23 04:07:03;;;;;;;29.70;19.95;;;6.20;99.90;;;;;;4978635;28;20264;-68
2022/04/23 04:09:31;;;;;;;31.50;20.60;;;6.10;99.90;;;;;;4978522;28;20222;-69
2022/04/23 04:12:02;;;;;;;34.00;22.17;;;6.10;99.90;;;;;;4978123;28;20220;-70
2022/04/23 04:14:32;;;;;;;33.25;22.83;;;6.10;99.90;;;;;;4978104;28;20246;-71
2022/04/23 04:17:01;;;;;;;30.08;21.63;;;6.10;99.90;;;;;;4987219;28;20272;-71
2022/04/23 04:19:31;;;;;;;36.90;23.13;;;6.10;99.90;;;;;;4998651;28;20623;-70
2022/04/23 04:22:02;;;;;;;35.40;22.55;;;6.10;99.90;;;;;;4998096;28;20219;-70
2022/04/23 04:24:32;;;;;;;31.05;22.40;;;6.10;99.90;;;;;;4997775;28;20517;-69
2022/04/23 04:27:01;;;;;;;36.92;21.83;;;6.10;99.90;;;;;;4998759;28;20267;-69
2022/04/23 04:29:31;;;;;;;35.80;22.55;;;6.10;99.90;;;;;;4997717;28;20230;-70
2022/04/23 04:31:59;;;;;;;34.20;22.75;;;6.10;99.90;;;;;;4997956;28;20515;-70
2022/04/23 04:34:29;;;;;;;33.80;22.70;;;6.10;99.90;;;;;;4993615;28;20589;-71
2022/04/23 04:37:03;;;;;;;32.85;21.73;;;6.20;99.90;;;;;;4977541;28;20235;-70
2022/04/23 04:39:31;;;;;;;32.83;22.80;;;6.20;99.90;;;;;;4977782;28;20691;-71
2022/04/23 04:42:00;;;;;;;33.25;23.88;;;6.20;99.90;;;;;;4977997;28;20262;-70
2022/04/23 04:44:32;;;;;;;35.92;23.05;;;6.20;99.90;;;;;;4978277;28;20239;-70
2022/04/23 04:47:01;;;;;;;33.13;23.67;;;6.20;99.90;;;;;;4977612;28;20600;-70
2022/04/23 04:49:28;;;;;;;32.30;22.30;;;6.20;99.90;;;;;;4977090;28;20709;-69
2022/04/23 04:51:56;;;;;;;34.75;23.30;;;6.30;99.90;;;;;;4977180;28;20231;-70
2022/04/23 04:54:24;;;;;;;31.60;23.30;;;6.30;99.90;;;;;;4977198;28;20671;-69
2022/04/23 04:56:53;;;;;;;32.95;21.77;;;6.30;99.90;;;;;;4977367;28;20671;-70
2022/04/23 04:59:21;;;;;;;38.28;23.73;;;6.30;99.90;;;;;;4977570;28;20675;-69
2022/04/23 05:01:51;;;;;;;30.42;20.90;;;6.40;99.90;;;;;;4985190;27;20215;-68
2022/04/23 05:04:20;;;;;;;32.95;22.55;;;6.40;99.90;;;;;;5004447;28;20590;-68
2022/04/23 05:06:48;;;;;;;33.67;21.80;;;6.50;99.90;;;;;;4998952;28;20667;-68
2022/04/23 05:09:16;;;;;;;33.95;22.65;;;6.50;99.90;;;;;;4989560;28;20616;-68
2022/04/23 05:11:44;;;;;;;31.08;20.70;;;6.50;99.90;;;;;;4998069;28;20311;-68
2022/04/23 05:14:12;;;;;;;30.42;21.35;;;6.50;99.90;;;;;;4986065;28;20615;-68
2022/04/23 05:16:40;;;;;;;34.40;22.88;;;6.50;99.90;;;;;;4987283;28;20690;-68
2022/04/23 05:19:09;;;;;;;29.58;19.95;;;6.60;99.90;;;;;;4985979;28;20226;-69
2022/04/23 05:21:37;;;;;;;24.70;19.75;;;6.60;99.90;;;;;;4984668;28;20224;-68
2022/04/23 05:24:06;;;;;;;32.42;21.77;;;6.60;99.90;;;;;;4991348;28;20203;-70
2022/04/23 05:26:35;;;;;;;31.40;20.15;;;6.70;99.90;;;;;;4990693;28;20211;-68
2022/04/23 05:29:04;;;;;;;29.75;20.88;;;6.80;99.90;;;;;;4994913;28;20213;-68
2022/04/23 05:31:32;;;;;;;29.58;20.90;;;6.80;99.90;;;;;;4996527;27;20306;-67
2022/04/23 05:34:01;;;;;;;25.20;18.90;;;6.80;99.90;;;;;;4995905;28;20666;-67
2022/04/23 05:36:30;;;;;;;24.25;20.05;;;6.90;99.90;;;;;;5012619;27;20249;-69
2022/04/23 05:38:58;;;;;;;25.50;19.98;;;6.90;99.90;;;;;;5017416;28;20619;-69
2022/04/23 05:41:25;;;;;;;26.52;18.48;;;7.00;99.90;;;;;;4990385;28;20748;-67
2022/04/23 05:43:53;;;;;;;26.45;19.17;;;7.00;99.90;;;;;;4988006;28;20459;-66
2022/04/23 05:46:24;;;;;;;22.98;17.90;;;7.10;99.90;;;;;;4990077;28;20612;-71
2022/04/23 05:48:52;;;;;;;29.35;21.38;;;7.20;99.90;;;;;;4991024;27;20307;-71
2022/04/23 05:51:20;;;;;;;21.65;18.02;;;7.30;99.90;;;;;;4999565;28;20278;-73
2022/04/23 05:53:49;;;;;;;23.35;16.75;;;7.50;99.90;;;;;;4990841;28;20714;-73
2022/04/23 05:56:17;;;;;;;23.73;18.23;;;7.70;99.90;;;;;;4988061;28;20287;-72
2022/04/23 05:58:46;;;;;;;25.35;17.48;;;7.80;99.90;;;;;;4990685;28;20872;-71
2022/04/23 06:01:14;;;;;;;21.05;16.27;;;7.90;99.90;;;;;;4990028;27;20231;-72
2022/04/23 06:03:43;;;;;;;22.40;17.17;;;8.00;99.90;;;;;;4994148;28;20412;-72
2022/04/23 06:06:11;;;;;;;19.10;16.73;;;8.10;99.90;;;;;;4992516;28;20246;-71
2022/04/23 06:08:42;;;;;;;22.35;16.48;;;8.20;99.90;;;;;;4992554;28;20203;-72
2022/04/23 06:11:12;;;;;;;18.60;15.50;;;8.30;99.90;;;;;;4992952;28;20887;-72
2022/04/23 06:13:40;;;;;;;19.02;16.25;;;8.40;99.90;;;;;;4994374;28;20195;-72
2022/04/23 06:16:08;;;;;;;17.23;14.32;;;8.50;99.90;;;;;;5003115;28;20203;-73
2022/04/23 06:18:35;;;;;;;17.50;14.70;;;8.60;99.90;;;;;;5007412;28;20255;-74
2022/04/23 06:21:03;;;;;;;16.02;14.32;;;8.70;99.90;;;;;;4996196;28;20220;-74
2022/04/23 06:23:31;;;;;;;15.57;13.52;;;8.80;99.90;;;;;;4994009;27;20235;-74
2022/04/23 06:25:59;;;;;;;14.85;12.75;;;8.90;99.90;;;;;;4997987;28;20204;-72
2022/04/23 06:28:28;;;;;;;15.52;11.90;;;9.00;99.90;;;;;;5009145;28;20305;-75
2022/04/23 06:30:56;;;;;;;17.30;14.40;;;9.10;99.90;;;;;;5002560;28;20227;-74
2022/04/23 06:33:26;;;;;;;14.57;13.07;;;9.30;99.90;;;;;;5003544;28;20203;-70
2022/04/23 06:35:54;;;;;;;13.93;12.43;;;9.30;99.90;;;;;;5001415;28;20215;-72
2022/04/23 06:38:22;;;;;;;14.93;12.65;;;9.50;99.90;;;;;;5004923;28;20235;-76
2022/04/23 06:40:51;;;;;;;15.23;13.73;;;9.50;99.90;;;;;;5001858;28;20250;-73
2022/04/23 06:43:19;;;;;;;14.32;12.82;;;9.60;99.90;;;;;;5003550;28;20209;-74
2022/04/23 06:45:48;;;;;;;13.23;11.63;;;9.70;99.90;;;;;;5007194;28;20187;-73
2022/04/23 06:48:16;;;;;;;13.65;11.25;;;9.70;99.90;;;;;;5002630;28;20361;-73
2022/04/23 06:50:48;;;;;;;13.57;12.07;;;9.80;99.90;;;;;;5001839;28;20253;-74
2022/04/23 06:53:16;;;;;;;14.57;12.88;;;9.90;99.90;;;;;;4997934;28;20218;-73
2022/04/23 06:55:44;;;;;;;13.32;12.15;;;10.00;99.90;;;;;;4999814;28;20205;-72
2022/04/23 06:58:12;;;;;;;12.10;10.88;;;10.10;99.90;;;;;;4999768;28;20209;-72
2022/04/23 07:00:41;;;;;;;13.10;11.90;;;10.10;99.90;;;;;;4989627;28;20204;-69
2022/04/23 07:03:10;;;;;;;15.10;13.52;;;10.10;99.90;;;;;;4981427;28;20200;-69
2022/04/23 07:05:38;;;;;;;13.70;11.27;;;10.20;99.90;;;;;;4981065;28;20476;-69
2022/04/23 07:08:06;;;;;;;11.48;10.45;;;10.20;99.90;;;;;;4986267;28;20213;-70
2022/04/23 07:10:34;;;;;;;11.30;10.30;;;10.30;99.90;;;;;;5000214;28;20300;-70
2022/04/23 07:13:03;;;;;;;10.90;9.80;;;10.40;99.90;;;;;;4998755;27;20215;-70
2022/04/23 07:15:31;;;;;;;10.82;9.75;;;10.40;99.90;;;;;;5011871;28;20233;-70
2022/04/23 07:17:59;;;;;;;10.68;9.77;;;10.50;99.90;;;;;;5018642;28;20197;-70
2022/04/23 07:20:29;;;;;;;11.20;9.25;;;10.60;99.90;;;;;;5021952;28;20477;-70
2022/04/23 07:25:57;;;;;;;11.60;9.60;;;10.80;99.90;;;;;;4999345;28;20215;-69
2022/04/23 07:28:25;;;;;;;8.93;8.13;;;10.90;99.90;;;;;;4990029;28;20664;-69
2022/04/23 07:30:53;;;;;;;9.00;8.10;;;11.00;99.90;;;;;;4988053;27;20288;-70
2022/04/23 07:38:53;;;;;;;7.37;6.77;;;11.20;99.90;;;;;;4998239;28;20537;-70
2022/04/23 07:41:21;;;;;;;7.93;7.23;;;11.30;99.90;;;;;;5011996;28;20473;-66
2022/04/23 07:43:49;;;;;;;7.87;7.23;;;11.40;99.90;;;;;;5018767;28;20540;-68
2022/04/23 07:46:17;;;;;;;7.40;6.80;;;11.50;99.90;;;;;;5021717;28;20545;-70
2022/04/23 07:48:45;;;;;;;7.53;6.93;;;11.70;99.90;;;;;;5011138;28;20519;-68
2022/04/23 07:51:14;;;;;;;7.30;6.73;;;11.80;99.90;;;;;;5000369;28;20482;-70
2022/04/23 07:53:42;;;;;;;6.93;6.43;;;11.90;99.90;;;;;;5000157;28;20489;-70
2022/04/23 07:56:10;;;;;;;7.03;6.30;;;12.00;99.90;;;;;;5000500;28;21036;-71
2022/04/23 07:58:38;;;;;;;6.37;5.87;;;12.10;99.90;;;;;;5002572;28;20545;-68
2022/04/23 08:01:07;;;;;;;6.00;5.40;;;12.20;99.90;;;;;;5015836;28;20517;-69
2022/04/23 08:03:35;;;;;;;6.53;6.00;;;12.30;99.90;;;;;;5008378;27;20830;-68
2022/04/23 08:06:04;;;;;;;6.83;6.30;;;12.40;99.90;;;;;;4999283;28;20503;-70
2022/04/23 08:08:34;;;;;;;5.33;5.00;;;12.50;99.90;;;;;;5003768;28;20441;-70
2022/04/23 08:11:01;;;;;;;6.70;6.20;;;12.50;99.90;;;;;;5018749;28;21059;-70
2022/04/23 08:13:29;;;;;;;6.07;5.67;;;12.50;99.90;;;;;;5000526;27;20585;-70
2022/04/23 08:15:59;;;;;;;6.37;5.77;;;12.50;99.90;;;;;;4999887;28;20446;-71
2022/04/23 08:18:27;;;;;;;5.27;4.87;;;12.60;99.90;;;;;;5012467;28;20446;-70
2022/04/23 08:20:55;;;;;;;5.77;5.37;;;12.70;99.90;;;;;;5003164;28;20470;-70
2022/04/23 08:23:23;;;;;;;7.10;6.40;;;12.70;99.90;;;;;;5013459;28;20981;-70
2022/04/23 08:25:55;;;;;;;5.57;5.17;;;12.80;99.90;;;;;;5011365;28;20481;-70
2022/04/23 08:31:09;;;;;;;4.87;4.47;;;13.00;99.90;;;;;;5040891;28;20504;-69
2022/04/23 08:36:22;;;;;;;5.13;4.77;;;13.10;99.90;;;;;;5014627;28;20442;-71
2022/04/23 08:38:51;;;;;;;5.23;4.73;;;13.20;99.90;;;;;;5024513;27;20548;-69
2022/04/23 08:41:20;;;;;;;5.00;4.60;;;13.30;99.90;;;;;;5021049;28;21032;-69
2022/04/23 08:43:48;;;;;;;5.90;5.40;;;13.30;99.90;;;;;;5010134;28;20695;-69
2022/04/23 08:46:18;;;;;;;4.67;4.37;;;13.40;99.90;;;;;;5003566;28;20543;-70
2022/04/23 08:48:50;;;;;;;4.83;4.43;;;13.40;99.90;;;;;;5006611;28;20454;-69
2022/04/23 08:51:23;;;;;;;5.53;5.13;;;13.60;99.90;;;;;;5001753;28;20573;-70
2022/04/23 08:53:56;;;;;;;6.03;4.50;;;13.60;99.90;;;;;;5000316;28;20442;-69
2022/04/23 08:56:25;;;;;;;4.97;4.67;;;13.60;99.90;;;;;;4999378;28;20874;-69
2022/04/23 08:58:56;;;;;;;4.63;4.23;;;13.60;99.90;;;;;;4999307;27;20465;-68
2022/04/23 09:01:24;;;;;;;5.20;4.80;;;13.70;99.90;;;;;;4999126;28;20462;-70
2022/04/23 09:03:52;;;;;;;4.60;4.30;;;13.80;99.90;;;;;;4998895;28;20452;-69
2022/04/23 09:06:20;;;;;;;4.40;4.10;;;13.90;99.90;;;;;;5008641;28;20824;-69
2022/04/23 09:09:13;;;;;;;5.97;5.47;;;14.10;99.90;;;;;;5017978;28;20536;-70
2022/04/23 09:11:44;;;;;;;4.53;4.30;;;14.10;99.90;;;;;;5018596;28;20477;-68
2022/04/23 09:14:24;;;;;;;5.37;5.00;;;14.10;99.90;;;;;;5018238;28;20846;-68
2022/04/23 09:25:18;;;;;;;5.23;4.90;;;14.30;99.90;;;;;;5018757;28;20441;-69
2022/04/23 09:27:48;;;;;;;5.70;5.30;;;14.30;99.90;;;;;;5017706;28;20932;-69
2022/04/23 09:30:16;;;;;;;5.40;4.90;;;14.40;99.50;;;;;;5018283;28;20503;-69
2022/04/23 09:32:58;;;;;;;5.40;4.90;;;14.40;99.30;;;;;;5018232;28;21099;-69
2022/04/23 09:35:26;;;;;;;4.90;4.60;;;14.50;99.30;;;;;;5019207;28;20578;-69
2022/04/23 09:40:39;;;;;;;5.40;4.90;;;14.60;99.40;;;;;;5020386;28;20453;-69
2022/04/23 09:43:09;;;;;;;4.73;4.43;;;14.60;98.90;;;;;;5019493;28;20448;-68
2022/04/23 09:45:41;;;;;;;5.73;5.33;;;14.70;99.10;;;;;;5020104;28;20826;-68
2022/04/23 09:48:16;;;;;;;5.07;4.77;;;14.70;98.90;;;;;;5036355;28;20617;-69
2022/04/23 09:50:45;;;;;;;4.23;3.93;;;14.70;99.00;;;;;;5026887;28;20476;-69
2022/04/23 09:53:14;;;;;;;5.83;5.43;;;14.80;99.00;;;;;;5017608;27;20520;-69
2022/04/23 09:55:42;;;;;;;6.03;4.90;;;14.80;98.70;;;;;;5017857;28;20550;-68
2022/04/23 09:58:13;;;;;;;4.47;4.17;;;14.80;99.10;;;;;;5017533;28;20441;-69
2022/04/23 10:00:42;;;;;;;4.50;4.20;;;15.00;98.90;;;;;;5016541;28;20746;-68
2022/04/23 10:03:11;;;;;;;4.63;4.33;;;15.10;98.10;;;;;;5017924;28;20505;-70
2022/04/23 10:05:41;;;;;;;4.80;4.50;;;15.10;98.00;;;;;;5019107;28;20441;-68
2022/04/23 10:08:11;;;;;;;5.80;5.40;;;15.20;97.80;;;;;;5019516;28;20442;-71
2022/04/23 10:10:44;;;;;;;6.33;4.80;;;15.20;97.90;;;;;;5018227;28;20890;-70
2022/04/23 10:13:17;;;;;;;5.33;5.03;;;15.30;98.40;;;;;;5008576;27;20504;-69
2022/04/23 10:15:46;;;;;;;4.60;4.30;;;15.30;98.00;;;;;;5005597;28;20563;-69
2022/04/23 10:18:15;;;;;;;5.70;5.20;;;15.40;98.20;;;;;;5016828;28;20819;-68
2022/04/23 10:20:53;;;;;;;5.73;5.27;;;15.40;98.20;;;;;;5015910;28;20548;-68
2022/04/23 10:23:30;;;;;;;5.70;5.20;;;15.40;98.20;;;;;;5010609;28;20513;-68
2022/04/23 10:26:27;;;;;;;5.70;5.40;;;15.40;98.30;;;;;;5012029;28;21042;-66
2022/04/23 10:28:57;;;;;;;6.20;5.80;;;15.50;97.80;;;;;;5004055;27;20458;-72
2022/04/23 10:31:25;;;;;;;4.93;4.63;;;15.70;99.90;;;;;;5016806;28;21072;-70
2022/04/23 10:33:54;;;;;;;5.43;5.13;;;15.80;99.40;;;;;;5007882;28;20597;-74
2022/04/23 10:36:24;;;;;;;5.33;4.93;;;16.00;97.90;;;;;;5002424;28;20926;-73
2022/04/23 10:39:22;;;;;;;5.27;4.93;;;16.10;97.40;;;;;;4990416;28;20845;-73
2022/04/23 10:41:53;;;;;;;4.93;4.50;;;16.30;97.70;;;;;;4993758;28;20557;-71
2022/04/23 10:44:23;;;;;;;5.27;4.87;;;16.30;97.10;;;;;;4994213;28;20683;-70
2022/04/23 10:46:56;;;;;;;4.60;4.30;;;16.40;96.70;;;;;;4981586;28;21002;-68
2022/04/23 10:49:26;;;;;;;5.07;4.77;;;16.50;96.60;;;;;;4995256;28;20697;-68
2022/04/23 10:51:55;;;;;;;4.57;4.27;;;16.60;96.70;;;;;;5002281;28;20526;-68
2022/04/23 10:54:59;;;;;;;4.93;4.63;;;16.70;97.40;;;;;;4986395;28;20455;-69
2022/04/23 10:57:27;;;;;;;5.07;4.67;;;16.80;96.80;;;;;;4986096;28;20538;-70
2022/04/23 10:59:56;;;;;;;5.50;5.10;;;16.80;96.20;;;;;;4996583;28;20481;-71
2022/04/23 11:02:32;;;;;;;5.53;5.13;;;16.70;95.70;;;;;;4990107;28;20459;-69
2022/04/23 11:13:31;;;;;;;5.43;5.00;;;17.00;97.00;;;;;;4994152;28;20478;-70
2022/04/23 11:16:14;;;;;;;5.37;4.97;;;17.30;95.50;;;;;;4988178;28;20512;-71
2022/04/23 11:18:44;;;;;;;4.70;4.30;;;17.40;95.50;;;;;;4979710;28;20459;-70
2022/04/23 11:21:18;;;;;;;5.10;4.70;;;17.50;96.20;;;;;;4981337;28;20469;-70
2022/04/23 11:23:47;;;;;;;5.73;5.33;;;17.50;95.60;;;;;;4982029;28;20539;-71
2022/04/23 11:26:17;;;;;;;5.87;5.43;;;17.60;95.90;;;;;;4981394;28;20447;-71
2022/04/23 11:28:46;;;;;;;4.70;4.40;;;17.70;96.80;;;;;;4980675;28;20455;-72
2022/04/23 11:31:16;;;;;;;6.60;6.10;;;17.80;96.10;;;;;;4982501;28;20530;-71
2022/04/23 11:33:51;;;;;;;5.97;5.57;;;17.70;95.10;;;;;;4986639;28;20774;-68
2022/04/23 11:36:20;;;;;;;5.30;4.90;;;17.60;94.50;;;;;;4996936;28;20533;-75
2022/04/23 11:38:48;;;;;;;6.40;5.90;;;17.50;95.10;;;;;;5016196;28;20536;-75
2022/04/23 11:41:30;;;;;;;5.67;4.70;;;17.40;95.10;;;;;;5018767;28;20552;-73
2022/04/23 11:43:59;;;;;;;6.13;5.57;;;17.40;95.40;;;;;;5020169;28;20510;-73
2022/04/23 11:46:28;;;;;;;6.13;5.73;;;17.50;94.70;;;;;;5022631;27;20462;-72
2022/04/23 11:48:56;;;;;;;6.07;5.57;;;17.50;94.70;;;;;;5018947;28;20550;-76
2022/04/23 11:51:24;;;;;;;5.43;5.13;;;17.60;94.60;;;;;;5019512;28;20541;-75
2022/04/23 11:53:58;;;;;;;6.43;6.00;;;17.70;94.80;;;;;;5006105;28;20486;-73
2022/04/23 11:56:32;;;;;;;6.10;5.70;;;17.80;94.20;;;;;;5016101;28;20457;-74
2022/04/23 11:59:03;;;;;;;6.80;5.67;;;17.80;93.60;;;;;;5019105;28;21149;-73
2022/04/23 12:01:32;;;;;;;6.23;5.73;;;17.80;94.20;;;;;;5018244;28;20509;-73
2022/04/23 12:04:01;;;;;;;5.93;5.53;;;17.80;94.80;;;;;;5001258;28;20606;-75
2022/04/23 12:06:42;;;;;;;5.10;4.80;;;17.80;94.60;;;;;;5000936;28;20463;-74
2022/04/23 12:09:11;;;;;;;5.50;5.20;;;18.00;94.30;;;;;;5005014;28;20492;-75
2022/04/23 12:11:40;;;;;;;7.27;6.67;;;18.20;94.50;;;;;;5018018;27;20551;-76
2022/04/23 12:14:09;;;;;;;5.03;4.73;;;18.40;94.00;;;;;;5010370;28;20552;-74
2022/04/23 12:16:41;;;;;;;5.80;5.20;;;18.60;93.80;;;;;;5020560;28;21028;-73
2022/04/23 12:19:10;;;;;;;7.80;7.20;;;18.80;93.60;;;;;;5022239;28;20489;-75
2022/04/23 12:21:39;;;;;;;7.27;6.70;;;19.00;95.00;;;;;;5022701;28;20495;-73
2022/04/23 12:24:09;;;;;;;9.67;8.87;;;19.20;96.00;;;;;;5011203;27;20541;-73
2022/04/23 12:26:38;;;;;;;9.83;8.93;;;19.30;95.70;;;;;;5010176;28;20442;-73
2022/04/23 12:43:22;;;;;;;10.60;9.70;;;17.90;97.30;;;;;;5018576;28;20969;-72
2022/04/23 12:45:51;;;;;;;10.80;9.90;;;17.60;97.30;;;;;;5014731;28;20523;-72
2022/04/23 12:48:20;;;;;;;9.90;9.10;;;17.40;97.20;;;;;;5019043;27;20504;-71
2022/04/23 12:50:50;;;;;;;9.60;8.60;;;17.20;97.20;;;;;;5019651;28;22216;-71
2022/04/23 12:53:34;;;;;;;10.57;9.57;;;17.10;97.20;;;;;;5004944;28;20904;-75
2022/04/23 12:56:05;;;;;;;11.07;10.07;;;17.10;97.80;;;;;;4999660;28;20701;-72
2022/04/23 12:58:33;;;;;;;11.03;10.03;;;17.10;98.20;;;;;;4999270;28;20732;-72
2022/04/23 13:01:01;;;;;;;9.60;8.80;;;17.10;98.50;;;;;;4998338;28;20550;-70
2022/04/23 13:03:37;;;;;;;11.17;10.17;;;17.10;98.40;;;;;;4998702;28;20649;-72
2022/04/23 13:08:54;;;;;;;10.73;9.83;;;17.10;98.30;;;;;;5000254;28;20510;-79
2022/04/23 13:08:56;;;;;;;10.33;9.43;;;17.20;98.20;;;;;;5013400;28;20481;-70
2022/04/23 13:11:30;;;;;;;9.73;8.93;;;17.10;98.10;;;;;;5007162;28;21083;-69
2022/04/23 13:14:00;;;;;;;9.00;8.30;;;17.10;97.80;;;;;;5009872;27;20578;-70
2022/04/23 13:16:33;;;;;;;9.50;8.60;;;17.10;98.30;;;;;;4988940;28;20435;-69
2022/04/23 13:19:05;;;;;;;9.13;8.33;;;17.10;98.60;;;;;;4987970;28;20438;-71
2022/04/23 13:21:36;;;;;;;8.20;7.70;;;17.20;98.20;;;;;;4989846;28;20451;-70
2022/04/23 13:24:05;;;;;;;10.17;9.37;;;17.20;97.90;;;;;;4988780;27;20502;-71
2022/04/23 13:26:34;;;;;;;9.30;8.40;;;17.20;97.60;;;;;;4986158;28;20442;-71
2022/04/23 13:29:02;;;;;;;11.70;10.37;;;17.30;97.90;;;;;;4990260;28;20545;-74
2022/04/23 13:31:29;;;;;;;10.70;9.70;;;17.30;97.70;;;;;;4987872;28;20514;-71
2022/04/23 13:33:57;;;;;;;9.10;8.50;;;17.30;97.60;;;;;;4990384;28;20635;-71
2022/04/23 13:36:28;;;;;;;11.17;10.17;;;17.30;97.70;;;;;;4994159;28;20447;-71
2022/04/23 13:38:56;;;;;;;10.33;9.43;;;17.20;97.90;;;;;;4991814;28;20484;-71
2022/04/23 13:41:24;;;;;;;12.77;11.47;;;17.00;97.70;;;;;;4994876;28;20459;-70
2022/04/23 13:43:51;;;;;;;10.80;9.80;;;16.90;97.80;;;;;;5001847;28;20557;-72